Nail, Arkansas
Current Conditions -  °F | °C
As of 12:53 PM on Sunday 21 Dec 2014 (Local Time) from KHRO Reporting Station
Overcast Overcast  
Wind Chill:   Ceiling: 3700
Heat Index:   Visibility: 10mi
Dew Point:   Wind: 12mph
Humidity: 76%   Direction: 140°SE
Pressure: 30.01"   Gusts: NA
Location:  35.8413°N, 93.3507°W
Report Text: KHRO 211853Z AUTO 14010KT 10SM OVC037 06/02 A3001 RMK AO2 PRESFR SLP165 T00560017 $
Loading
Personal Weather Stations






























Interactive Weather Map New forecast layout! Learn more

10-Day Weather Forecast

Advertisements
Track Severe Weather on mobile